createdAt,value
2019-05-21T00:01:31.657Z,10.90
2019-05-21T00:04:06.960Z,10.90
2019-05-21T00:06:49.144Z,10.90
2019-05-21T00:09:24.730Z,10.80
2019-05-21T00:12:06.922Z,10.80
2019-05-21T00:14:42.192Z,10.70
2019-05-21T00:17:23.934Z,10.80
2019-05-21T00:19:58.658Z,10.80
2019-05-21T00:22:40.975Z,10.80
2019-05-21T00:25:17.454Z,10.70
2019-05-21T00:27:59.212Z,10.70
2019-05-21T00:31:10.879Z,10.80
2019-05-21T00:34:43.151Z,10.70
2019-05-21T00:37:47.855Z,10.70
2019-05-21T00:41:06.029Z,10.70
2019-05-21T00:43:59.760Z,10.70
2019-05-21T00:46:36.069Z,10.70
2019-05-21T00:49:17.707Z,10.70
2019-05-21T00:52:06.982Z,10.60
2019-05-21T00:54:35.919Z,10.60
2019-05-21T00:57:18.211Z,10.70
2019-05-21T00:59:53.879Z,10.60
2019-05-21T01:02:35.083Z,10.60
2019-05-21T01:05:10.616Z,10.60
2019-05-21T01:07:52.562Z,10.60
2019-05-21T01:10:28.226Z,10.50
2019-05-21T01:13:11.956Z,10.50
2019-05-21T01:15:47.827Z,10.40
2019-05-21T01:18:31.074Z,10.40
2019-05-21T01:21:12.652Z,10.40
2019-05-21T01:23:47.355Z,10.30
2019-05-21T01:26:33.221Z,10.30
2019-05-21T01:29:14.720Z,10.30
2019-05-21T01:31:49.990Z,10.30
2019-05-21T01:34:32.733Z,10.30
2019-05-21T01:37:08.549Z,10.30
2019-05-21T01:39:56.763Z,10.30
2019-05-21T01:42:33.912Z,10.30
2019-05-21T01:45:23.237Z,10.30
2019-05-21T01:48:00.406Z,10.20
2019-05-21T01:50:42.085Z,10.20
2019-05-21T01:53:16.659Z,10.30
2019-05-21T01:55:58.276Z,10.30
2019-05-21T01:58:33.959Z,10.30
2019-05-21T02:01:15.673Z,10.30
2019-05-21T02:03:51.172Z,10.30
2019-05-21T02:06:32.484Z,10.30
2019-05-21T02:09:11.182Z,10.20
2019-05-21T02:11:53.143Z,10.20
2019-05-21T02:14:28.875Z,10.20
2019-05-21T02:17:11.358Z,10.20
2019-05-21T02:19:47.722Z,10.10
2019-05-21T02:22:29.383Z,10.10
2019-05-21T02:25:05.004Z,10.10
2019-05-21T02:27:46.664Z,10.10
2019-05-21T02:30:29.907Z,10.10
2019-05-21T02:33:04.381Z,10.10
2019-05-21T02:35:54.010Z,10.10
2019-05-21T02:38:24.754Z,10.10
2019-05-21T02:41:13.653Z,10.10
2019-05-21T02:43:54.897Z,10.00
2019-05-21T02:46:37.131Z,10.10
2019-05-21T02:49:11.698Z,10.10
2019-05-21T02:51:53.451Z,10.00
2019-05-21T02:54:39.936Z,10.00
2019-05-21T02:57:11.522Z,10.00
2019-05-21T02:59:48.745Z,10.00
2019-05-21T03:02:38.098Z,10.00
2019-05-21T03:05:13.829Z,10.00
2019-05-21T03:07:55.675Z,10.00
2019-05-21T03:10:36.894Z,10.00
2019-05-21T03:13:12.480Z,10.00
2019-05-21T03:15:54.108Z,10.00
2019-05-21T03:18:28.827Z,9.90
2019-05-21T03:21:11.059Z,10.00
2019-05-21T03:23:46.500Z,10.00
2019-05-21T03:26:28.153Z,9.90
2019-05-21T03:29:03.632Z,9.90
2019-05-21T03:31:45.485Z,9.90
2019-05-21T03:34:20.546Z,9.90
2019-05-21T03:37:02.497Z,9.90
2019-05-21T03:39:44.418Z,9.90
2019-05-21T03:42:26.104Z,9.90
2019-05-21T03:45:13.822Z,9.80
2019-05-21T03:47:49.236Z,9.80
2019-05-21T03:50:30.916Z,9.80
2019-05-21T03:53:06.381Z,9.80
2019-05-21T03:55:48.056Z,9.80
2019-05-21T03:58:23.601Z,9.80
2019-05-21T04:01:05.240Z,9.80
2019-05-21T04:03:40.741Z,9.80
2019-05-21T04:06:23.227Z,9.80
2019-05-21T04:08:58.024Z,9.80
2019-05-21T04:11:39.392Z,9.80
2019-05-21T04:14:16.802Z,9.80
2019-05-21T04:17:00.179Z,9.80
2019-05-21T04:19:36.655Z,9.80
2019-05-21T04:22:21.425Z,9.80
2019-05-21T04:24:57.011Z,9.80
2019-05-21T04:27:38.309Z,9.80
2019-05-21T04:30:14.621Z,9.70
2019-05-21T04:32:56.587Z,9.70
2019-05-21T04:35:38.707Z,9.70
2019-05-21T04:38:14.183Z,9.70
2019-05-21T04:41:02.426Z,9.70
2019-05-21T04:43:37.606Z,9.70
2019-05-21T04:46:19.894Z,9.70
2019-05-21T04:48:55.525Z,9.80
2019-05-21T04:51:37.047Z,9.80
2019-05-21T04:54:11.668Z,9.70
2019-05-21T04:56:52.989Z,9.70
2019-05-21T04:59:28.468Z,9.80
2019-05-21T05:02:10.533Z,9.70
2019-05-21T05:04:45.377Z,9.70
2019-05-21T05:07:28.844Z,9.70
2019-05-21T05:10:04.153Z,9.70
2019-05-21T05:12:46.067Z,9.70
2019-05-21T05:15:22.020Z,9.70
2019-05-21T05:18:03.538Z,9.70
2019-05-21T05:20:39.133Z,9.70
2019-05-21T05:23:20.232Z,9.70
2019-05-21T05:25:55.755Z,9.60
2019-05-21T05:28:37.855Z,9.60
2019-05-21T05:31:15.452Z,9.60
2019-05-21T05:33:56.321Z,9.60
2019-05-21T05:36:30.882Z,9.60
2019-05-21T05:39:13.101Z,9.60
2019-05-21T05:41:55.505Z,9.60
2019-05-21T05:44:43.139Z,9.60
2019-05-21T05:47:26.156Z,9.60
2019-05-21T05:50:02.885Z,9.50
2019-05-21T05:52:45.237Z,9.50
2019-05-21T05:55:21.481Z,9.50
2019-05-21T05:58:03.360Z,9.50
2019-05-21T06:00:38.845Z,9.50
2019-05-21T06:03:23.435Z,9.50
2019-05-21T06:05:58.801Z,9.50
2019-05-21T06:08:40.090Z,9.50
2019-05-21T06:11:15.014Z,9.50
2019-05-21T06:13:57.332Z,9.50
2019-05-21T06:16:34.457Z,9.50
2019-05-21T06:19:16.337Z,9.40
2019-05-21T06:21:51.506Z,9.50
2019-05-21T06:24:33.114Z,9.50
2019-05-21T06:27:08.685Z,9.50
2019-05-21T06:29:50.755Z,9.50
2019-05-21T06:32:32.469Z,9.40
2019-05-21T06:35:08.059Z,9.40
2019-05-21T06:37:50.329Z,9.50
2019-05-21T06:40:25.995Z,9.40
2019-05-21T06:43:08.212Z,9.40
2019-05-21T06:45:49.467Z,9.40
2019-05-21T06:48:31.370Z,9.40
2019-05-21T06:51:06.679Z,9.40
2019-05-21T06:53:48.508Z,9.40
2019-05-21T06:56:24.081Z,9.50
2019-05-21T06:59:06.016Z,9.50
2019-05-21T07:01:41.640Z,9.40
2019-05-21T07:04:23.290Z,9.40
2019-05-21T07:06:58.843Z,9.50
2019-05-21T07:09:40.936Z,9.50
2019-05-21T07:12:23.235Z,9.50
2019-05-21T07:14:58.589Z,9.40
2019-05-21T07:17:40.300Z,9.50
2019-05-21T07:20:15.865Z,9.50
2019-05-21T07:22:57.989Z,9.60
2019-05-21T07:25:33.133Z,9.50
2019-05-21T07:28:14.683Z,9.50
2019-05-21T07:30:49.600Z,9.50
2019-05-21T07:33:31.164Z,9.50
2019-05-21T07:36:06.775Z,9.60
2019-05-21T07:38:54.110Z,9.60
2019-05-21T07:41:25.512Z,9.60
2019-05-21T07:44:14.316Z,9.60
2019-05-21T07:46:50.472Z,9.60
2019-05-21T07:49:32.724Z,9.60
2019-05-21T07:52:07.844Z,9.60
2019-05-21T07:54:49.112Z,9.60
2019-05-21T07:57:24.727Z,9.60
2019-05-21T08:00:06.756Z,9.60
2019-05-21T08:02:48.098Z,9.60
2019-05-21T08:05:22.676Z,9.60
2019-05-21T08:08:03.812Z,9.60
2019-05-21T08:10:39.023Z,9.60
2019-05-21T08:13:21.061Z,9.60
2019-05-21T08:15:56.613Z,9.60
2019-05-21T08:18:38.185Z,9.60
2019-05-21T08:21:13.589Z,9.70
2019-05-21T08:23:55.781Z,9.70
2019-05-21T08:26:30.591Z,9.70
2019-05-21T08:29:12.496Z,9.70
2019-05-21T08:31:48.124Z,9.80
2019-05-21T08:34:30.102Z,9.80
2019-05-21T08:37:05.583Z,9.90
2019-05-21T08:39:53.574Z,9.80
2019-05-21T08:42:28.994Z,9.80
2019-05-21T08:45:11.073Z,9.80
2019-05-21T08:47:46.516Z,9.80
2019-05-21T08:50:28.398Z,9.80
2019-05-21T08:53:04.209Z,9.90
2019-05-21T08:55:32.903Z,9.90
2019-05-21T08:58:06.861Z,9.90
2019-05-21T09:00:38.556Z,9.80
2019-05-21T09:03:07.239Z,9.90
2019-05-21T09:05:42.823Z,10.00
2019-05-21T09:08:11.421Z,10.00
2019-05-21T09:10:48.774Z,10.00
2019-05-21T09:13:24.274Z,10.00
2019-05-21T09:15:52.759Z,10.10
2019-05-21T09:18:28.636Z,10.00
2019-05-21T09:20:57.202Z,10.10
2019-05-21T09:23:32.273Z,10.20
2019-05-21T09:26:00.882Z,10.30
2019-05-21T09:28:36.665Z,10.30
2019-05-21T09:31:05.323Z,10.30
2019-05-21T09:33:40.192Z,10.30
2019-05-21T09:36:08.851Z,10.20
2019-05-21T09:38:43.625Z,10.20
2019-05-21T09:41:19.186Z,10.20
2019-05-21T09:43:54.764Z,10.20
2019-05-21T09:46:29.951Z,10.30
2019-05-21T09:49:11.904Z,10.50
2019-05-21T09:51:47.423Z,10.50
2019-05-21T09:54:28.855Z,10.60
2019-05-21T09:57:05.991Z,10.60
2019-05-21T10:00:03.385Z,10.60
2019-05-21T10:02:38.632Z,10.50
2019-05-21T10:05:20.246Z,10.70
2019-05-21T10:07:55.060Z,10.80
2019-05-21T10:10:36.676Z,10.90
2019-05-21T10:13:12.206Z,11.00
2019-05-21T10:15:54.258Z,11.10
2019-05-21T10:18:29.753Z,11.20
2019-05-21T10:21:11.616Z,11.00
2019-05-21T10:23:46.685Z,11.00
2019-05-21T10:26:28.740Z,10.90
2019-05-21T10:29:03.380Z,10.90
2019-05-21T10:31:45.691Z,10.80
2019-05-21T10:34:28.019Z,10.80
2019-05-21T10:37:03.437Z,11.00
2019-05-21T10:39:45.201Z,11.00
2019-05-21T10:42:26.865Z,11.00
2019-05-21T10:45:08.530Z,11.00
2019-05-21T10:47:49.224Z,11.00
2019-05-21T10:50:37.731Z,11.00
2019-05-21T10:53:19.210Z,11.00
2019-05-21T10:56:06.918Z,10.90
2019-05-21T10:58:47.724Z,10.80
2019-05-21T11:01:46.114Z,10.70
2019-05-21T11:04:29.388Z,10.70
2019-05-21T11:07:20.291Z,10.70
2019-05-21T11:10:08.201Z,10.80
2019-05-21T11:12:49.692Z,10.80
2019-05-21T11:15:38.936Z,10.80
2019-05-21T11:18:20.323Z,10.70
2019-05-21T11:21:08.353Z,10.80
2019-05-21T11:23:49.666Z,10.90
2019-05-21T11:26:37.964Z,10.80
2019-05-21T11:29:19.640Z,10.80
2019-05-21T11:32:01.592Z,10.80
2019-05-21T11:34:37.272Z,10.80
2019-05-21T11:37:18.395Z,10.70
2019-05-21T11:39:53.265Z,10.60
2019-05-21T11:42:28.843Z,10.50
2019-05-21T11:44:57.476Z,10.40
2019-05-21T11:47:33.093Z,10.40
2019-05-21T11:50:01.657Z,10.50
2019-05-21T11:52:37.363Z,10.60
2019-05-21T11:55:06.496Z,10.70
2019-05-21T11:57:42.243Z,10.70
2019-05-21T12:00:12.540Z,10.80
2019-05-21T12:02:47.517Z,10.80
2019-05-21T12:05:16.567Z,10.70
2019-05-21T12:07:51.580Z,10.80
2019-05-21T12:10:20.360Z,10.70
2019-05-21T12:12:56.018Z,10.60
2019-05-21T12:15:24.644Z,10.50
2019-05-21T12:17:59.527Z,10.60
2019-05-21T12:20:37.355Z,10.60
2019-05-21T12:23:05.613Z,10.50
2019-05-21T12:25:41.301Z,10.50
2019-05-21T12:28:11.241Z,10.60
2019-05-21T12:30:46.588Z,10.50
2019-05-21T12:33:15.287Z,10.50
2019-05-21T12:35:50.543Z,10.50
2019-05-21T12:38:19.204Z,10.50
2019-05-21T12:41:00.687Z,10.50
2019-05-21T12:43:29.301Z,10.50
2019-05-21T12:46:11.439Z,10.50
2019-05-21T12:48:46.661Z,10.50
2019-05-21T12:51:28.619Z,10.60
2019-05-21T12:54:03.693Z,10.60
2019-05-21T12:56:45.423Z,10.50
2019-05-21T12:59:20.667Z,10.60
2019-05-21T13:02:02.971Z,10.60
2019-05-21T13:04:38.586Z,10.60
2019-05-21T13:07:20.419Z,10.70
2019-05-21T13:09:55.467Z,10.60
2019-05-21T13:12:37.805Z,10.60
2019-05-21T13:15:13.404Z,10.60
2019-05-21T13:17:55.042Z,10.60
2019-05-21T13:20:36.812Z,10.70
2019-05-21T13:23:12.488Z,10.60
2019-05-21T13:25:54.896Z,10.60
2019-05-21T13:28:30.385Z,10.60
2019-05-21T13:31:12.419Z,10.50
2019-05-21T13:33:47.708Z,10.50
2019-05-21T13:36:29.631Z,10.50
2019-05-21T13:39:05.461Z,10.40
2019-05-21T13:41:53.686Z,10.40
2019-05-21T13:44:28.519Z,10.40
2019-05-21T13:47:10.048Z,10.50
2019-05-21T13:49:51.021Z,10.40
2019-05-21T13:52:39.672Z,10.40
2019-05-21T13:55:21.196Z,10.40
2019-05-21T13:58:09.117Z,10.40
2019-05-21T14:00:54.655Z,10.40
2019-05-21T14:03:42.993Z,10.40
2019-05-21T14:06:25.393Z,10.40
2019-05-21T14:09:13.887Z,10.30
2019-05-21T14:12:03.304Z,10.30
2019-05-21T14:14:44.830Z,10.30
2019-05-21T14:17:33.193Z,10.30
2019-05-21T14:20:16.112Z,10.20
2019-05-21T14:23:04.213Z,10.20
2019-05-21T14:25:45.319Z,10.20
2019-05-21T14:28:41.151Z,10.30
2019-05-21T14:31:22.324Z,10.30
2019-05-21T14:34:10.487Z,10.20
2019-05-21T14:36:52.742Z,10.30
2019-05-21T14:39:40.986Z,10.20
2019-05-21T14:42:25.861Z,10.20
2019-05-21T14:45:07.759Z,10.20
2019-05-21T14:47:49.496Z,10.20
2019-05-21T14:50:37.155Z,10.20
2019-05-21T14:53:26.316Z,10.30
2019-05-21T14:56:13.647Z,10.30
2019-05-21T14:58:54.435Z,10.30
2019-05-21T15:01:43.186Z,10.30
2019-05-21T15:04:24.226Z,10.30
2019-05-21T15:07:12.121Z,10.30
2019-05-21T15:09:53.961Z,10.30
2019-05-21T15:12:42.125Z,10.30
2019-05-21T15:15:24.010Z,10.30
2019-05-21T15:18:19.525Z,10.40
2019-05-21T15:20:58.041Z,10.40
2019-05-21T15:23:48.338Z,10.40
2019-05-21T15:26:30.015Z,10.40
2019-05-21T15:29:18.128Z,10.40
2019-05-21T15:31:58.971Z,10.40
2019-05-21T15:34:47.943Z,10.50
2019-05-21T15:37:28.620Z,10.50
2019-05-21T15:40:18.580Z,10.50
2019-05-21T15:43:07.115Z,10.50
2019-05-21T15:45:48.878Z,10.50
2019-05-21T15:48:30.811Z,10.50
2019-05-21T15:51:06.432Z,10.50
2019-05-21T15:53:48.700Z,10.60
2019-05-21T15:56:23.571Z,10.60
2019-05-21T15:59:05.671Z,10.50
2019-05-21T16:01:48.114Z,10.60
2019-05-21T16:04:23.168Z,10.60
2019-05-21T16:07:04.451Z,10.60
2019-05-21T16:09:39.104Z,10.60
2019-05-21T16:12:21.491Z,10.70
2019-05-21T16:14:56.919Z,10.70
2019-05-21T16:17:38.655Z,10.70
2019-05-21T16:20:14.190Z,10.60
2019-05-21T16:22:55.399Z,10.60
2019-05-21T16:25:30.857Z,10.60
2019-05-21T16:28:13.165Z,10.60
2019-05-21T16:30:48.593Z,10.50
2019-05-21T16:33:30.706Z,10.60
2019-05-21T16:36:05.511Z,10.60
2019-05-21T16:38:47.286Z,10.60
2019-05-21T16:41:43.498Z,10.60
2019-05-21T16:44:33.568Z,10.60
2019-05-21T16:47:21.987Z,10.60
2019-05-21T16:50:10.387Z,10.50
2019-05-21T16:52:52.027Z,10.50
2019-05-21T16:55:41.436Z,10.60
2019-05-21T16:58:30.784Z,10.60
2019-05-21T17:01:13.813Z,10.50
2019-05-21T17:04:01.653Z,10.60
2019-05-21T17:06:44.080Z,10.50
2019-05-21T17:09:32.301Z,10.50
2019-05-21T17:12:14.822Z,10.50
2019-05-21T17:15:02.711Z,10.50
2019-05-21T17:17:43.568Z,10.50
2019-05-21T17:20:34.011Z,10.50
2019-05-21T17:23:15.362Z,10.50
2019-05-21T17:26:04.053Z,10.50
2019-05-21T17:28:52.999Z,10.50
2019-05-21T17:31:33.843Z,10.50
2019-05-21T17:34:22.092Z,10.60
2019-05-21T17:37:02.962Z,10.60
2019-05-21T17:39:51.273Z,10.60
2019-05-21T17:42:33.746Z,10.60
2019-05-21T17:45:24.161Z,10.60
2019-05-21T17:48:05.993Z,10.50
2019-05-21T17:50:54.096Z,10.50
2019-05-21T17:53:35.886Z,10.50
2019-05-21T17:56:23.808Z,10.50
2019-05-21T17:59:13.297Z,10.50
2019-05-21T18:01:54.848Z,10.50
2019-05-21T18:04:44.238Z,10.40
2019-05-21T18:07:27.797Z,10.40
2019-05-21T18:10:16.370Z,10.40
2019-05-21T18:12:58.218Z,10.40
2019-05-21T18:15:47.341Z,10.40
2019-05-21T18:18:29.663Z,10.40
2019-05-21T18:21:18.989Z,10.40
2019-05-21T18:24:00.515Z,10.40
2019-05-21T18:26:49.004Z,10.40
2019-05-21T18:29:37.607Z,10.40
2019-05-21T18:32:27.436Z,10.40
2019-05-21T18:35:16.344Z,10.30
2019-05-21T18:37:59.183Z,10.30
2019-05-21T18:40:48.903Z,10.30
2019-05-21T18:43:24.717Z,10.30
2019-05-21T18:46:13.228Z,10.30
2019-05-21T18:48:55.869Z,10.30
2019-05-21T18:51:43.974Z,10.30
2019-05-21T18:54:25.511Z,10.30
2019-05-21T18:57:14.565Z,10.30
2019-05-21T19:00:03.459Z,10.30
2019-05-21T19:02:45.052Z,10.30
2019-05-21T19:05:33.855Z,10.30
2019-05-21T19:08:15.581Z,10.30
2019-05-21T19:11:05.824Z,10.30
2019-05-21T19:13:50.396Z,10.30
2019-05-21T19:16:47.907Z,10.30
2019-05-21T19:19:30.009Z,10.30
2019-05-21T19:22:18.829Z,10.30
2019-05-21T19:25:07.140Z,10.30
2019-05-21T19:27:47.954Z,10.30
2019-05-21T19:30:36.994Z,10.30
2019-05-21T19:33:12.550Z,10.30
2019-05-21T19:35:54.845Z,10.30
2019-05-21T19:38:29.859Z,10.30
2019-05-21T19:41:11.544Z,10.30
2019-05-21T19:43:40.254Z,10.30
2019-05-21T19:46:15.880Z,10.30
2019-05-21T19:48:51.554Z,10.30
2019-05-21T19:51:33.297Z,10.30
2019-05-21T19:54:08.758Z,10.30
2019-05-21T19:56:51.172Z,10.40
2019-05-21T19:59:26.125Z,10.30
2019-05-21T20:02:08.821Z,10.30
2019-05-21T20:04:46.156Z,10.30
2019-05-21T20:07:28.060Z,10.30
2019-05-21T20:10:05.150Z,10.30
2019-05-21T20:12:47.445Z,10.30
2019-05-21T20:15:29.469Z,10.30
2019-05-21T20:18:07.343Z,10.30
2019-05-21T20:20:49.886Z,10.30
2019-05-21T20:23:26.343Z,10.30
2019-05-21T20:26:08.180Z,10.30
2019-05-21T20:28:43.926Z,10.30
2019-05-21T20:31:25.236Z,10.20
2019-05-21T20:34:00.918Z,10.30
2019-05-21T20:36:42.937Z,10.20
2019-05-21T20:39:19.097Z,10.30
2019-05-21T20:42:08.091Z,10.30
2019-05-21T20:44:43.750Z,10.30
2019-05-21T20:47:25.874Z,10.30
2019-05-21T20:50:12.033Z,10.30
2019-05-21T20:53:00.072Z,10.30
2019-05-21T20:55:42.773Z,10.30
2019-05-21T20:58:31.318Z,10.30
2019-05-21T21:01:20.615Z,10.20
2019-05-21T21:04:01.820Z,10.20
2019-05-21T21:06:50.990Z,10.20
2019-05-21T21:09:33.520Z,10.20
2019-05-21T21:12:23.531Z,10.20
2019-05-21T21:15:05.112Z,10.20
2019-05-21T21:17:54.074Z,10.20
2019-05-21T21:20:36.731Z,10.20
2019-05-21T21:23:27.855Z,10.20
2019-05-21T21:26:09.628Z,10.20
2019-05-21T21:28:57.397Z,10.10
2019-05-21T21:31:45.688Z,10.20
2019-05-21T21:34:27.375Z,10.20
2019-05-21T21:37:16.427Z,10.20
2019-05-21T21:39:58.095Z,10.20
2019-05-21T21:42:46.104Z,10.10
2019-05-21T21:45:20.759Z,10.10
2019-05-21T21:48:02.601Z,10.10
2019-05-21T21:50:45.331Z,10.10
2019-05-21T21:53:33.415Z,10.10
2019-05-21T21:56:15.856Z,10.20
2019-05-21T21:59:04.170Z,10.10
2019-05-21T22:01:57.596Z,10.10
2019-05-21T22:04:40.035Z,10.10
2019-05-21T22:07:27.783Z,10.10
2019-05-21T22:10:10.728Z,10.10
2019-05-21T22:13:00.728Z,10.10
2019-05-21T22:15:43.275Z,10.10
2019-05-21T22:18:30.934Z,10.00
2019-05-21T22:21:13.000Z,10.10
2019-05-21T22:24:01.645Z,10.00
2019-05-21T22:26:42.762Z,10.00
2019-05-21T22:29:31.611Z,10.00
2019-05-21T22:32:16.757Z,10.00
2019-05-21T22:35:03.607Z,10.00
2019-05-21T22:37:51.932Z,10.00
2019-05-21T22:40:33.682Z,10.00
2019-05-21T22:43:16.156Z,10.00
2019-05-21T22:45:57.953Z,10.00
2019-05-21T22:48:39.954Z,10.00
2019-05-21T22:51:27.339Z,10.00
2019-05-21T22:54:15.099Z,10.00
2019-05-21T22:56:56.908Z,10.00
2019-05-21T22:59:45.245Z,10.00
2019-05-21T23:02:34.886Z,10.00
2019-05-21T23:05:22.849Z,10.00
2019-05-21T23:08:07.345Z,10.00
2019-05-21T23:10:48.952Z,10.00
2019-05-21T23:13:36.891Z,10.10
2019-05-21T23:16:19.532Z,10.00
2019-05-21T23:19:08.119Z,10.00
2019-05-21T23:21:51.839Z,10.00
2019-05-21T23:24:39.764Z,10.00
2019-05-21T23:27:24.655Z,9.90
2019-05-21T23:30:14.182Z,9.90
2019-05-21T23:33:03.644Z,9.90
2019-05-21T23:35:46.207Z,9.90
2019-05-21T23:38:34.353Z,9.90
2019-05-21T23:41:15.779Z,9.90
2019-05-21T23:44:03.931Z,9.90
2019-05-21T23:46:45.969Z,9.90
2019-05-21T23:49:27.670Z,9.90
2019-05-21T23:52:16.404Z,9.90
2019-05-21T23:55:04.232Z,9.90
2019-05-21T23:57:46.439Z,9.90
